createdAt,value
2019-06-01T00:04:43.040Z,100503.97
2019-06-01T00:09:49.529Z,100512.86
2019-06-01T00:14:54.297Z,100519.45
2019-06-01T00:19:59.158Z,100510.73
2019-06-01T00:25:04.299Z,100506.21
2019-06-01T00:30:09.485Z,100508.34
2019-06-01T00:35:14.469Z,100508.98
2019-06-01T00:40:19.685Z,100501.98
2019-06-01T00:45:24.578Z,100501.48
2019-06-01T00:50:29.429Z,100500.12
2019-06-01T00:55:34.357Z,100491.13
2019-06-01T01:00:43.507Z,100498.16
2019-06-01T01:05:47.092Z,100494.72
2019-06-01T01:10:53.089Z,100483.99
2019-06-01T01:15:58.015Z,100487.39
2019-06-01T01:21:03.165Z,100484.03
2019-06-01T01:26:08.056Z,100470.00
2019-06-01T01:31:14.321Z,100470.15
2019-06-01T01:36:19.446Z,100467.06
2019-06-01T01:41:24.298Z,100463.84
2019-06-01T01:46:29.137Z,100453.58
2019-06-01T01:51:33.861Z,100459.30
2019-06-01T01:56:39.315Z,100465.36
2019-06-01T02:01:44.243Z,100463.83
2019-06-01T02:06:48.949Z,100453.09
2019-06-01T02:11:53.779Z,100441.08
2019-06-01T02:16:58.608Z,100438.84
2019-06-01T02:22:03.774Z,100432.37
2019-06-01T02:27:08.448Z,100432.71
2019-06-01T02:32:13.247Z,100419.43
2019-06-01T02:37:18.027Z,100414.13
2019-06-01T02:42:22.934Z,100406.44
2019-06-01T02:47:27.846Z,100399.08
2019-06-01T02:52:32.862Z,100399.89
2019-06-01T02:57:37.698Z,100399.08
2019-06-01T03:02:42.957Z,100390.38
2019-06-01T03:07:50.197Z,100381.06
2019-06-01T03:12:58.399Z,100381.17
2019-06-01T03:18:05.607Z,100370.55
2019-06-01T03:23:13.164Z,100365.98
2019-06-01T03:28:20.749Z,100365.98
2019-06-01T03:33:25.443Z,100354.81
2019-06-01T03:38:30.333Z,100359.63
2019-06-01T03:43:35.117Z,100356.83
2019-06-01T03:48:39.828Z,100350.64
2019-06-01T03:53:44.615Z,100343.83
2019-06-01T03:58:49.398Z,100339.59
2019-06-01T04:03:54.227Z,100332.75
2019-06-01T04:08:58.949Z,100334.22
2019-06-01T04:14:03.677Z,100341.58
2019-06-01T04:19:08.404Z,100353.30
2019-06-01T04:24:13.190Z,100352.98
2019-06-01T04:29:17.985Z,100354.87
2019-06-01T04:34:22.811Z,100347.00
2019-06-01T04:39:27.699Z,100347.00
2019-06-01T04:44:32.403Z,100348.54
2019-06-01T04:49:37.092Z,100350.16
2019-06-01T04:54:41.839Z,100348.82
2019-06-01T04:59:46.735Z,100347.31
2019-06-01T05:04:51.478Z,100334.57
2019-06-01T05:09:56.338Z,100318.55
2019-06-01T05:15:01.023Z,100323.31
2019-06-01T05:20:06.307Z,100311.31
2019-06-01T05:25:12.241Z,100311.60
2019-06-01T05:30:18.792Z,100320.98
2019-06-01T05:35:23.498Z,100318.30
2019-06-01T05:40:28.283Z,100310.09
2019-06-01T05:45:32.947Z,100315.11
2019-06-01T05:50:37.657Z,100308.09
2019-06-01T05:55:42.427Z,100308.54
2019-06-01T06:00:47.360Z,100310.57
2019-06-01T06:05:52.193Z,100318.04
2019-06-01T06:10:57.017Z,100325.27
2019-06-01T06:16:01.905Z,100319.66
2019-06-01T06:21:06.617Z,100317.81
2019-06-01T06:26:11.300Z,100315.40
2019-06-01T06:31:17.015Z,100317.47
2019-06-01T06:36:21.915Z,100316.94
2019-06-01T06:41:26.592Z,100315.45
2019-06-01T06:46:31.309Z,100305.21
2019-06-01T06:51:35.965Z,100300.03
2019-06-01T06:56:40.686Z,100296.55
2019-06-01T07:01:45.444Z,100299.73
2019-06-01T07:06:50.285Z,100295.31
2019-06-01T07:11:55.023Z,100291.28
2019-06-01T07:16:59.808Z,100301.09
2019-06-01T07:22:04.654Z,100305.05
2019-06-01T07:27:09.446Z,100298.84
2019-06-01T07:32:14.145Z,100297.83
2019-06-01T07:37:20.514Z,100294.86
2019-06-01T07:42:26.613Z,100304.30
2019-06-01T07:47:34.003Z,100293.06
2019-06-01T07:52:38.614Z,100293.38
2019-06-01T07:57:44.366Z,100288.55
2019-06-01T08:02:49.256Z,100280.58
2019-06-01T08:07:54.072Z,100287.22
2019-06-01T08:12:58.763Z,100296.21
2019-06-01T08:18:03.584Z,100298.22
2019-06-01T08:23:08.345Z,100289.41
2019-06-01T08:28:13.120Z,100303.77
2019-06-01T08:33:17.897Z,100294.63
2019-06-01T08:38:23.349Z,100303.98
2019-06-01T08:43:29.643Z,100291.52
2019-06-01T08:48:34.532Z,100299.44
2019-06-01T08:53:39.381Z,100296.77
2019-06-01T08:58:44.122Z,100300.53
2019-06-01T09:03:48.896Z,100294.94
2019-06-01T09:08:53.505Z,100285.27
2019-06-01T09:13:58.307Z,100287.38
2019-06-01T09:19:03.086Z,100280.84
2019-06-01T09:24:07.909Z,100284.92
2019-06-01T09:29:12.690Z,100282.62
2019-06-01T09:34:17.354Z,100279.09
2019-06-01T09:39:22.067Z,100277.63
2019-06-01T09:44:26.955Z,100288.64
2019-06-01T09:49:33.535Z,100284.50
2019-06-01T09:54:38.269Z,100284.85
2019-06-01T09:59:42.941Z,100284.85
2019-06-01T10:04:47.654Z,100279.71
2019-06-01T10:09:52.536Z,100279.69
2019-06-01T10:14:57.390Z,100282.59
2019-06-01T10:20:02.215Z,100273.57
2019-06-01T10:25:08.005Z,100263.13
2019-06-01T10:30:14.262Z,100256.59
2019-06-01T10:35:19.601Z,100256.59
2019-06-01T10:40:24.327Z,100246.34
2019-06-01T10:45:29.248Z,100252.22
2019-06-01T10:50:34.868Z,100233.59
2019-06-01T10:55:40.337Z,100239.23
2019-06-01T11:00:50.565Z,100243.58
2019-06-01T11:05:51.667Z,100242.79
2019-06-01T11:10:56.395Z,100242.14
2019-06-01T11:16:01.199Z,100260.11
2019-06-01T11:21:06.139Z,100248.02
2019-06-01T11:26:10.938Z,100248.02
2019-06-01T11:31:15.893Z,100237.31
2019-06-01T11:36:20.779Z,100217.91
2019-06-01T11:41:25.554Z,100201.31
2019-06-01T11:46:30.411Z,100192.45
2019-06-01T11:51:35.213Z,100163.65
2019-06-01T11:56:41.244Z,100167.62
2019-06-01T12:01:46.259Z,100162.91
2019-06-01T12:06:50.998Z,100165.71
2019-06-01T12:11:55.801Z,100157.91
2019-06-01T12:17:00.659Z,100159.37
2019-06-01T12:22:05.602Z,100163.09
2019-06-01T12:27:10.518Z,100157.67
2019-06-01T12:32:15.347Z,100152.60
2019-06-01T12:37:36.214Z,100148.36
2019-06-01T12:42:26.759Z,100135.56
2019-06-01T12:47:31.655Z,100125.41
2019-06-01T12:52:36.491Z,100129.72
2019-06-01T12:57:41.291Z,100125.36
2019-06-01T13:02:56.378Z,100125.94
2019-06-01T13:08:01.797Z,100106.56
2019-06-01T13:12:59.227Z,100095.34
2019-06-01T13:18:04.318Z,100093.66
2019-06-01T13:23:09.254Z,100074.76
2019-06-01T13:28:14.210Z,100075.44
2019-06-01T13:33:19.464Z,100062.03
2019-06-01T13:38:24.271Z,100058.61
2019-06-01T13:43:29.011Z,100044.23
2019-06-01T13:48:33.966Z,100060.73
2019-06-01T13:53:38.831Z,100035.48
2019-06-01T13:58:44.276Z,100033.22
2019-06-01T14:03:49.468Z,100022.84
2019-06-01T14:08:55.212Z,100022.95
2019-06-01T14:14:00.139Z,100008.23
2019-06-01T14:19:06.903Z,99994.19
2019-06-01T14:24:11.499Z,99986.59
2019-06-01T14:29:16.258Z,99987.22
2019-06-01T14:34:21.068Z,99979.88
2019-06-01T14:39:25.886Z,99965.88
2019-06-01T14:44:30.718Z,99962.33
2019-06-01T14:49:35.667Z,99972.20
2019-06-01T14:54:40.511Z,99962.09
2019-06-01T14:59:45.312Z,99958.85
2019-06-01T15:04:50.451Z,99953.06
2019-06-01T15:09:56.305Z,99951.62
2019-06-01T15:15:02.451Z,99936.69
2019-06-01T15:20:08.081Z,99935.00
2019-06-01T15:25:13.202Z,99920.92
2019-06-01T15:30:18.811Z,99916.28
2019-06-01T15:35:23.802Z,99918.56
2019-06-01T15:40:28.760Z,99911.79
2019-06-01T15:45:33.722Z,99894.48
2019-06-01T15:50:38.538Z,99883.91
2019-06-01T15:55:43.266Z,99883.38
2019-06-01T16:00:48.155Z,99880.42
2019-06-01T16:05:53.053Z,99873.55
2019-06-01T16:11:02.829Z,99860.25
2019-06-01T16:16:05.187Z,99857.89
2019-06-01T16:21:10.181Z,99864.45
2019-06-01T16:26:16.340Z,99845.93
2019-06-01T16:31:21.459Z,99848.88
2019-06-01T16:36:26.243Z,99844.11
2019-06-01T16:41:31.134Z,99834.48
2019-06-01T16:46:36.018Z,99833.78
2019-06-01T16:56:58.343Z,99824.01
2019-06-01T17:02:03.482Z,99836.45
2019-06-01T17:07:08.864Z,99827.95
2019-06-01T17:12:13.738Z,99814.53
2019-06-01T17:17:18.559Z,99819.97
2019-06-01T17:22:23.426Z,99804.98
2019-06-01T17:27:28.471Z,99787.25
2019-06-01T17:32:34.375Z,99790.77
2019-06-01T17:37:39.278Z,99784.77
2019-06-01T17:42:44.260Z,99790.16
2019-06-01T17:47:49.200Z,99794.60
2019-06-01T17:52:54.155Z,99783.40
2019-06-01T17:57:59.078Z,99783.67
2019-06-01T18:03:03.996Z,99786.09
2019-06-01T18:08:10.207Z,99779.37
2019-06-01T18:13:15.318Z,99764.87
2019-06-01T18:18:20.077Z,99770.56
2019-06-01T18:23:25.004Z,99779.94
2019-06-01T18:28:30.317Z,99762.98
2019-06-01T18:33:35.316Z,99767.70
2019-06-01T18:38:40.017Z,99758.83
2019-06-01T18:43:44.911Z,99757.37
2019-06-01T18:48:49.723Z,99749.66
2019-06-01T18:53:57.477Z,99748.31
2019-06-01T18:59:04.881Z,99750.22
2019-06-01T19:04:09.683Z,99746.06
2019-06-01T19:09:15.665Z,99726.53
2019-06-01T19:14:20.741Z,99728.08
2019-06-01T19:19:25.774Z,99724.60
2019-06-01T19:24:31.620Z,99717.33
2019-06-01T19:29:36.415Z,99707.09
2019-06-01T19:34:41.290Z,99698.47
2019-06-01T19:39:47.717Z,99699.58
2019-06-01T19:44:52.555Z,99687.89
2019-06-01T19:49:57.519Z,99684.99
2019-06-01T19:55:02.676Z,99681.68
2019-06-01T20:00:10.003Z,99682.41
2019-06-01T20:05:16.660Z,99677.78
2019-06-01T20:10:22.587Z,99680.55
2019-06-01T20:15:27.569Z,99691.47
2019-06-01T20:20:32.958Z,99678.33
2019-06-01T20:25:38.087Z,99687.05
2019-06-01T20:30:42.801Z,99696.46
2019-06-01T20:35:47.928Z,99688.86
2019-06-01T20:40:52.922Z,99684.91
2019-06-01T20:45:58.077Z,99673.49
2019-06-01T20:51:02.817Z,99665.39
2019-06-01T20:56:07.758Z,99667.31
2019-06-01T21:01:13.965Z,99675.45
2019-06-01T21:06:20.436Z,99672.91
2019-06-01T21:11:25.448Z,99660.59
2019-06-01T21:16:30.307Z,99668.83
2019-06-01T21:21:35.084Z,99668.03
2019-06-01T21:26:39.889Z,99667.73
2019-06-01T21:31:45.132Z,99676.67
2019-06-01T21:36:50.317Z,99672.34
2019-06-01T21:41:55.505Z,99671.46
2019-06-01T21:47:00.576Z,99650.55
2019-06-01T21:52:05.815Z,99644.01
2019-06-01T21:57:10.654Z,99650.34
2019-06-01T22:02:16.880Z,99648.62
2019-06-01T22:07:23.230Z,99647.06
2019-06-01T22:12:28.249Z,99643.73
2019-06-01T22:17:33.146Z,99655.59
2019-06-01T22:22:37.942Z,99647.16
2019-06-01T22:27:42.913Z,99660.52
2019-06-01T22:32:47.739Z,99646.72
2019-06-01T22:37:52.754Z,99643.30
2019-06-01T22:42:57.534Z,99626.01
2019-06-01T22:48:02.391Z,99623.84
2019-06-01T22:53:07.203Z,99613.11
2019-06-01T22:58:11.958Z,99600.58
2019-06-01T23:03:16.926Z,99595.61
2019-06-01T23:08:24.061Z,99586.72
2019-06-01T23:13:28.554Z,99593.95
2019-06-01T23:18:33.286Z,99590.77
2019-06-01T23:23:38.226Z,99596.16
2019-06-01T23:28:43.221Z,99585.80
2019-06-01T23:33:48.052Z,99599.86
2019-06-01T23:38:52.889Z,99584.81
2019-06-01T23:44:11.288Z,99573.36
2019-06-01T23:49:04.897Z,99569.77
2019-06-01T23:54:09.914Z,99548.83
2019-06-01T23:59:14.956Z,99548.03
